Time;durP1;ratioP1;P1;durP2;ratioP2;P2;SDS_P1;SDS_P2;PMS_P1;PMS_P2;Temp;Humidity;BMP_temperature;BMP_pressure;BME280_temperature;BME280_humidity;BME280_pressure;Samples;Min_cycle;Max_cycle;Signal;HPM_P1;HPM_P2
2024/01/14 00:01:19;;;;;;;36.03;23.88;;;;;;;;;;6287825;28;24449;-68
2024/01/14 00:04:21;;;;;;;34.50;23.35;;;;;;;;;;6288916;28;24469;-69
2024/01/14 00:07:22;;;;;;;34.30;22.87;;;;;;;;;;6273754;28;24677;-69
2024/01/14 00:10:25;;;;;;;33.00;22.23;;;;;;;;;;6289327;28;24426;-68
2024/01/14 00:13:28;;;;;;;33.22;22.60;;;;;;;;;;6288827;28;24429;-69
2024/01/14 00:16:34;;;;;;;35.33;22.35;;;;;;;;;;6291312;28;24407;-68
2024/01/14 00:19:35;;;;;;;34.17;21.70;;;;;;;;;;6289918;28;24423;-68
2024/01/14 00:22:37;;;;;;;33.03;22.80;;;;;;;;;;6289764;28;24914;-68
2024/01/14 00:25:40;;;;;;;31.90;21.83;;;;;;;;;;6287536;28;24640;-68
2024/01/14 00:28:42;;;;;;;31.45;21.48;;;;;;;;;;6288883;28;24457;-68
2024/01/14 00:31:44;;;;;;;32.40;22.05;;;;;;;;;;6291138;28;24415;-68
2024/01/14 00:34:45;;;;;;;31.83;20.77;;;;;;;;;;6289973;28;24427;-68
2024/01/14 00:37:48;;;;;;;30.80;20.48;;;;;;;;;;6268226;28;24431;-67
2024/01/14 00:40:51;;;;;;;33.10;21.10;;;;;;;;;;6289595;28;24621;-68
2024/01/14 00:43:53;;;;;;;31.48;21.15;;;;;;;;;;6289634;28;25121;-68
2024/01/14 00:46:54;;;;;;;31.38;20.63;;;;;;;;;;6289016;28;24438;-68
2024/01/14 00:49:56;;;;;;;30.97;21.77;;;;;;;;;;6290677;28;24424;-68
2024/01/14 00:52:58;;;;;;;30.73;20.90;;;;;;;;;;6290196;28;24680;-68
2024/01/14 00:56:02;;;;;;;29.67;20.23;;;;;;;;;;6289718;28;24419;-68
2024/01/14 00:59:03;;;;;;;30.30;20.38;;;;;;;;;;6290693;28;24407;-68
2024/01/14 01:02:05;;;;;;;28.55;19.08;;;;;;;;;;6292825;28;25045;-68
2024/01/14 01:05:08;;;;;;;28.13;19.43;;;;;;;;;;6290880;28;24425;-68
2024/01/14 01:08:10;;;;;;;28.45;19.48;;;;;;;;;;6292863;28;24446;-68
2024/01/14 01:11:15;;;;;;;29.85;19.35;;;;;;;;;;6288216;28;24429;-68
2024/01/14 01:14:17;;;;;;;27.88;18.35;;;;;;;;;;6291254;28;24429;-67
2024/01/14 01:17:19;;;;;;;28.30;18.77;;;;;;;;;;6288681;28;24452;-68
2024/01/14 01:20:21;;;;;;;29.50;19.67;;;;;;;;;;6288841;28;24508;-68
2024/01/14 01:23:23;;;;;;;31.77;19.85;;;;;;;;;;6291092;28;24438;-68
2024/01/14 01:26:26;;;;;;;34.88;23.05;;;;;;;;;;6287727;28;24431;-69
2024/01/14 01:29:27;;;;;;;38.90;24.95;;;;;;;;;;6291000;28;24422;-68
2024/01/14 01:32:29;;;;;;;37.13;24.20;;;;;;;;;;6289966;28;24422;-68
2024/01/14 01:35:31;;;;;;;39.42;24.75;;;;;;;;;;6274242;28;24430;-68
2024/01/14 01:38:32;;;;;;;38.10;25.45;;;;;;;;;;6295282;28;24476;-68
2024/01/14 01:41:36;;;;;;;42.57;26.80;;;;;;;;;;6297152;28;24430;-67
2024/01/14 01:44:38;;;;;;;40.40;26.38;;;;;;;;;;6289908;28;24664;-68
2024/01/14 01:47:40;;;;;;;38.50;25.13;;;;;;;;;;6294908;28;24431;-68
2024/01/14 01:50:42;;;;;;;40.92;26.25;;;;;;;;;;6276408;28;24431;-68
2024/01/14 01:53:43;;;;;;;41.30;25.95;;;;;;;;;;6293140;28;24606;-70
2024/01/14 01:56:47;;;;;;;41.70;26.15;;;;;;;;;;6296169;28;24431;-69
2024/01/14 01:59:49;;;;;;;39.03;25.83;;;;;;;;;;6293761;28;24946;-69
2024/01/14 02:02:51;;;;;;;40.92;26.13;;;;;;;;;;6294491;28;24422;-68
2024/01/14 02:05:53;;;;;;;40.72;26.35;;;;;;;;;;6291062;28;24801;-68
2024/01/14 02:08:55;;;;;;;41.15;26.33;;;;;;;;;;6293576;28;24817;-69
2024/01/14 02:11:59;;;;;;;40.50;26.67;;;;;;;;;;6292824;28;24719;-67
2024/01/14 02:15:01;;;;;;;39.37;26.03;;;;;;;;;;6294357;28;24419;-68
2024/01/14 02:18:03;;;;;;;38.40;25.42;;;;;;;;;;6291812;28;24434;-68
2024/01/14 02:21:06;;;;;;;37.80;25.00;;;;;;;;;;6296079;28;25036;-68
2024/01/14 02:24:22;;;;;;;34.63;23.83;;;;;;;;;;6293700;28;24438;-68
2024/01/14 02:27:24;;;;;;;37.40;24.63;;;;;;;;;;6273739;28;24438;-68
2024/01/14 02:30:26;;;;;;;37.75;24.92;;;;;;;;;;6296443;28;24449;-68
2024/01/14 02:33:28;;;;;;;35.05;23.98;;;;;;;;;;6290619;28;24835;-68
2024/01/14 02:36:30;;;;;;;35.95;24.48;;;;;;;;;;6290257;28;24420;-68
2024/01/14 02:39:34;;;;;;;33.30;23.02;;;;;;;;;;6277745;28;24434;-68
2024/01/14 02:42:35;;;;;;;34.63;23.90;;;;;;;;;;6271686;28;24505;-70
2024/01/14 02:45:37;;;;;;;34.22;23.38;;;;;;;;;;6292623;28;24823;-68
2024/01/14 02:48:39;;;;;;;34.05;24.10;;;;;;;;;;6287307;28;24681;-68
2024/01/14 02:51:41;;;;;;;33.25;23.88;;;;;;;;;;6277207;28;24431;-68
2024/01/14 02:54:44;;;;;;;33.28;23.10;;;;;;;;;;6293917;28;24422;-68
2024/01/14 02:57:47;;;;;;;33.65;23.08;;;;;;;;;;6292023;28;24463;-68
2024/01/14 03:00:49;;;;;;;34.40;23.77;;;;;;;;;;6293233;28;24429;-68
2024/01/14 03:03:51;;;;;;;33.50;24.00;;;;;;;;;;6288919;28;24629;-62
2024/01/14 03:06:53;;;;;;;34.40;23.15;;;;;;;;;;6289010;28;24415;-62
2024/01/14 03:09:56;;;;;;;34.75;24.25;;;;;;;;;;6295246;28;24437;-62
2024/01/14 03:12:58;;;;;;;34.20;23.42;;;;;;;;;;6291531;28;24426;-62
2024/01/14 03:16:00;;;;;;;33.60;23.43;;;;;;;;;;6294214;28;24560;-61
2024/01/14 03:19:02;;;;;;;37.42;24.55;;;;;;;;;;6291222;28;24425;-62
2024/01/14 03:22:03;;;;;;;34.08;23.88;;;;;;;;;;6290280;28;24438;-62
2024/01/14 03:25:07;;;;;;;33.45;23.80;;;;;;;;;;6287247;28;24423;-62
2024/01/14 03:28:09;;;;;;;36.17;23.73;;;;;;;;;;6292604;28;24446;-62
2024/01/14 03:31:14;;;;;;;34.30;23.20;;;;;;;;;;6291684;28;24445;-62
2024/01/14 03:34:16;;;;;;;31.13;22.63;;;;;;;;;;6288851;28;24605;-62
2024/01/14 03:37:18;;;;;;;30.20;22.10;;;;;;;;;;6289227;28;24415;-61
2024/01/14 03:40:21;;;;;;;32.78;22.27;;;;;;;;;;6289637;28;24464;-62
2024/01/14 03:43:22;;;;;;;30.23;22.08;;;;;;;;;;6296864;28;24411;-62
2024/01/14 03:46:24;;;;;;;32.63;22.20;;;;;;;;;;6292768;28;24422;-61
2024/01/14 03:49:26;;;;;;;30.20;21.60;;;;;;;;;;6290153;28;24425;-61
2024/01/14 03:52:27;;;;;;;31.38;21.83;;;;;;;;;;6291314;28;24547;-61
2024/01/14 03:55:31;;;;;;;32.53;22.15;;;;;;;;;;6293246;28;24422;-61
2024/01/14 03:58:32;;;;;;;30.58;21.58;;;;;;;;;;6291683;28;24865;-61
2024/01/14 04:01:34;;;;;;;30.90;21.10;;;;;;;;;;6290284;28;24411;-61
2024/01/14 04:04:36;;;;;;;29.38;20.60;;;;;;;;;;6291512;28;25081;-61
2024/01/14 04:07:37;;;;;;;28.45;19.63;;;;;;;;;;6289339;28;24430;-61
2024/01/14 04:10:41;;;;;;;29.73;20.52;;;;;;;;;;6289473;28;24426;-62
2024/01/14 04:13:42;;;;;;;29.85;20.48;;;;;;;;;;6289959;28;24434;-61
2024/01/14 04:16:44;;;;;;;27.60;20.10;;;;;;;;;;6289647;28;24423;-62
2024/01/14 04:19:46;;;;;;;27.75;19.85;;;;;;;;;;6288112;28;24414;-62
2024/01/14 04:22:48;;;;;;;30.53;21.37;;;;;;;;;;6292805;28;24496;-62
2024/01/14 04:25:51;;;;;;;29.17;20.73;;;;;;;;;;6291432;28;24415;-62
2024/01/14 04:28:53;;;;;;;30.33;20.60;;;;;;;;;;6289536;28;24447;-62
2024/01/14 04:31:55;;;;;;;29.02;20.48;;;;;;;;;;6289766;28;25052;-62
2024/01/14 04:34:56;;;;;;;29.30;20.25;;;;;;;;;;6291865;28;24419;-63
2024/01/14 04:37:58;;;;;;;28.65;19.33;;;;;;;;;;6290360;28;24450;-62
2024/01/14 04:41:01;;;;;;;26.43;18.87;;;;;;;;;;6294280;28;24426;-62
2024/01/14 04:44:03;;;;;;;29.05;19.25;;;;;;;;;;6275285;28;25107;-62
2024/01/14 04:47:05;;;;;;;29.10;19.15;;;;;;;;;;6293107;28;24452;-62
2024/01/14 04:50:07;;;;;;;29.20;19.08;;;;;;;;;;6289321;28;24435;-62
2024/01/14 04:53:09;;;;;;;27.98;19.05;;;;;;;;;;6289619;28;24418;-62
2024/01/14 04:56:12;;;;;;;27.77;18.33;;;;;;;;;;6290414;28;24423;-62
2024/01/14 04:59:14;;;;;;;26.23;18.00;;;;;;;;;;6286586;28;24437;-61
2024/01/14 05:02:16;;;;;;;25.90;17.85;;;;;;;;;;6291404;28;24441;-62
2024/01/14 05:05:18;;;;;;;28.95;18.02;;;;;;;;;;6287518;28;24466;-62
2024/01/14 05:08:20;;;;;;;25.45;17.15;;;;;;;;;;6288997;28;24613;-61
2024/01/14 05:11:23;;;;;;;26.88;17.90;;;;;;;;;;6289104;28;24427;-62
2024/01/14 05:14:25;;;;;;;26.08;17.73;;;;;;;;;;6294937;28;24838;-62
2024/01/14 05:17:27;;;;;;;25.48;17.33;;;;;;;;;;6291473;28;24427;-62
2024/01/14 05:20:29;;;;;;;26.40;17.85;;;;;;;;;;6293792;28;24832;-62
2024/01/14 05:23:30;;;;;;;25.92;18.02;;;;;;;;;;6292393;28;24431;-69
2024/01/14 05:26:34;;;;;;;23.58;17.25;;;;;;;;;;6294083;28;24896;-67
2024/01/14 05:29:35;;;;;;;25.85;18.35;;;;;;;;;;6292194;28;24427;-67
2024/01/14 05:32:37;;;;;;;26.75;18.65;;;;;;;;;;6292849;28;24427;-67
2024/01/14 05:35:39;;;;;;;25.75;18.30;;;;;;;;;;6280432;28;24864;-68
2024/01/14 05:38:43;;;;;;;27.33;18.45;;;;;;;;;;6293886;28;24645;-68
2024/01/14 05:41:46;;;;;;;29.77;19.70;;;;;;;;;;6293376;28;24568;-68
2024/01/14 05:44:47;;;;;;;26.05;18.63;;;;;;;;;;6292881;28;24835;-68
2024/01/14 05:47:49;;;;;;;28.60;19.58;;;;;;;;;;6293491;28;24904;-68
2024/01/14 05:50:51;;;;;;;26.55;19.40;;;;;;;;;;6291131;28;24417;-68
2024/01/14 05:53:53;;;;;;;28.93;19.33;;;;;;;;;;6293659;28;24419;-67
2024/01/14 05:56:57;;;;;;;27.48;19.52;;;;;;;;;;6296094;28;24494;-68
2024/01/14 05:59:59;;;;;;;29.00;20.00;;;;;;;;;;6273943;28;24813;-68
2024/01/14 06:03:00;;;;;;;27.63;19.65;;;;;;;;;;6295627;28;24697;-68
2024/01/14 06:06:02;;;;;;;27.58;19.17;;;;;;;;;;6296822;28;24423;-68
2024/01/14 06:09:04;;;;;;;26.90;18.92;;;;;;;;;;6294919;28;24831;-68
2024/01/14 06:12:07;;;;;;;26.58;18.80;;;;;;;;;;6296279;28;24464;-68
2024/01/14 06:15:10;;;;;;;26.70;19.20;;;;;;;;;;6300065;28;24518;-69
2024/01/14 06:18:12;;;;;;;27.30;19.25;;;;;;;;;;6291525;28;24811;-68
2024/01/14 06:21:14;;;;;;;27.25;19.67;;;;;;;;;;6294287;28;24420;-67
2024/01/14 06:24:15;;;;;;;27.38;19.63;;;;;;;;;;6291260;28;24433;-69
2024/01/14 06:27:18;;;;;;;26.73;19.05;;;;;;;;;;6291279;28;24826;-69
2024/01/14 06:30:20;;;;;;;28.05;19.63;;;;;;;;;;6296215;28;24446;-69
2024/01/14 06:33:22;;;;;;;27.77;19.17;;;;;;;;;;6292684;28;24614;-71
2024/01/14 06:36:24;;;;;;;26.55;19.38;;;;;;;;;;6292692;28;24422;-71
2024/01/14 06:39:25;;;;;;;30.58;19.77;;;;;;;;;;6294780;28;24422;-70
2024/01/14 06:42:29;;;;;;;27.27;19.07;;;;;;;;;;6294205;28;24862;-69
2024/01/14 06:45:31;;;;;;;27.45;19.38;;;;;;;;;;6294040;28;24423;-68
2024/01/14 06:48:33;;;;;;;27.57;18.77;;;;;;;;;;6294204;28;24542;-68
2024/01/14 06:51:35;;;;;;;27.90;19.48;;;;;;;;;;6293871;28;24834;-68
2024/01/14 06:54:39;;;;;;;27.20;19.25;;;;;;;;;;6293113;28;24430;-69
2024/01/14 06:57:42;;;;;;;30.60;19.88;;;;;;;;;;6278212;28;24419;-69
2024/01/14 07:00:44;;;;;;;27.90;19.55;;;;;;;;;;6289055;28;24431;-69
2024/01/14 07:03:46;;;;;;;26.92;19.33;;;;;;;;;;6289477;28;24419;-68
2024/01/14 07:06:48;;;;;;;29.63;18.83;;;;;;;;;;6289948;28;24821;-68
2024/01/14 07:09:50;;;;;;;29.35;18.73;;;;;;;;;;6292847;28;24838;-68
2024/01/14 07:12:53;;;;;;;29.33;19.43;;;;;;;;;;6293663;28;24839;-68
2024/01/14 07:15:54;;;;;;;26.45;19.20;;;;;;;;;;6275113;28;24828;-68
2024/01/14 07:18:56;;;;;;;28.25;19.73;;;;;;;;;;6292682;28;24427;-68
2024/01/14 07:21:58;;;;;;;27.97;18.80;;;;;;;;;;6293593;28;24423;-66
2024/01/14 07:24:59;;;;;;;29.25;19.30;;;;;;;;;;6293961;28;24442;-67
2024/01/14 07:28:03;;;;;;;25.90;18.73;;;;;;;;;;6291246;28;24827;-68
2024/01/14 07:31:05;;;;;;;25.47;18.37;;;;;;;;;;6293033;28;24434;-68
2024/01/14 07:34:06;;;;;;;26.58;18.48;;;;;;;;;;6290365;28;24714;-68
2024/01/14 07:37:08;;;;;;;26.95;18.63;;;;;;;;;;6288768;28;24439;-67
2024/01/14 07:40:11;;;;;;;28.63;19.85;;;;;;;;;;6293419;28;24469;-68
2024/01/14 07:43:14;;;;;;;26.48;18.35;;;;;;;;;;6270835;28;24446;-62
2024/01/14 07:46:16;;;;;;;27.50;18.77;;;;;;;;;;6289387;28;24430;-62
2024/01/14 07:49:17;;;;;;;26.80;18.52;;;;;;;;;;6289146;28;24823;-62
2024/01/14 07:52:19;;;;;;;25.77;18.17;;;;;;;;;;6291146;28;24634;-62
2024/01/14 07:55:21;;;;;;;29.02;19.23;;;;;;;;;;6291400;28;24453;-62
2024/01/14 07:58:24;;;;;;;28.08;19.15;;;;;;;;;;6277318;28;24641;-62
2024/01/14 08:01:26;;;;;;;26.95;18.85;;;;;;;;;;6287893;28;24419;-62
2024/01/14 08:04:28;;;;;;;27.00;18.77;;;;;;;;;;6292362;28;24807;-63
2024/01/14 08:07:30;;;;;;;27.17;18.80;;;;;;;;;;6277150;28;24418;-62
2024/01/14 08:10:31;;;;;;;26.77;18.63;;;;;;;;;;6292388;28;24423;-62
2024/01/14 08:13:34;;;;;;;26.52;19.13;;;;;;;;;;6303675;28;24529;-62
2024/01/14 08:16:36;;;;;;;26.45;19.02;;;;;;;;;;6288086;28;24565;-62
2024/01/14 08:19:38;;;;;;;25.33;18.57;;;;;;;;;;6289636;28;24455;-62
2024/01/14 08:22:40;;;;;;;26.92;18.90;;;;;;;;;;6288990;28;24494;-63
2024/01/14 08:25:42;;;;;;;27.85;19.63;;;;;;;;;;6292262;28;24473;-63
2024/01/14 08:28:45;;;;;;;26.40;18.90;;;;;;;;;;6290509;28;24427;-63
2024/01/14 08:31:47;;;;;;;24.83;18.05;;;;;;;;;;6292331;28;24423;-63
2024/01/14 08:34:49;;;;;;;25.35;17.90;;;;;;;;;;6292482;28;24500;-63
2024/01/14 08:37:50;;;;;;;25.73;18.20;;;;;;;;;;6290005;28;24880;-63
2024/01/14 08:40:52;;;;;;;26.08;18.00;;;;;;;;;;6288217;28;24426;-63
2024/01/14 08:43:56;;;;;;;26.60;18.53;;;;;;;;;;6292051;28;24477;-63
2024/01/14 08:46:58;;;;;;;26.25;18.15;;;;;;;;;;6288793;28;24420;-63
2024/01/14 08:50:00;;;;;;;24.40;18.02;;;;;;;;;;6291119;28;24493;-62
2024/01/14 08:53:01;;;;;;;23.35;17.95;;;;;;;;;;6287906;28;24815;-65
2024/01/14 08:56:03;;;;;;;25.10;18.25;;;;;;;;;;6289781;28;24835;-62
2024/01/14 08:59:06;;;;;;;26.30;19.57;;;;;;;;;;6287249;28;24481;-63
2024/01/14 09:02:08;;;;;;;26.17;19.40;;;;;;;;;;6290429;28;24840;-62
2024/01/14 09:05:10;;;;;;;23.55;17.75;;;;;;;;;;6293692;28;24411;-62
2024/01/14 09:08:13;;;;;;;26.05;18.33;;;;;;;;;;6291687;28;24670;-62
2024/01/14 09:11:15;;;;;;;25.17;18.13;;;;;;;;;;6286762;28;24510;-60
2024/01/14 09:14:19;;;;;;;23.05;17.13;;;;;;;;;;6290021;28;24422;-62
2024/01/14 09:17:20;;;;;;;22.85;17.08;;;;;;;;;;6289635;28;25053;-63
2024/01/14 09:20:22;;;;;;;21.65;16.92;;;;;;;;;;6291944;28;24434;-62
2024/01/14 09:23:24;;;;;;;22.10;16.30;;;;;;;;;;6292983;28;24423;-63
2024/01/14 09:26:25;;;;;;;22.73;16.65;;;;;;;;;;6270474;28;24852;-66
2024/01/14 09:29:29;;;;;;;23.05;16.77;;;;;;;;;;6289115;28;24446;-63
2024/01/14 09:32:30;;;;;;;23.35;17.25;;;;;;;;;;6288788;28;24425;-63
2024/01/14 09:35:32;;;;;;;22.23;17.00;;;;;;;;;;6287404;28;24423;-62
2024/01/14 09:38:34;;;;;;;23.25;17.45;;;;;;;;;;6293308;28;24410;-62
2024/01/14 09:41:41;;;;;;;21.90;16.48;;;;;;;;;;6286849;28;24831;-63
2024/01/14 09:44:44;;;;;;;23.05;17.13;;;;;;;;;;6283963;28;24415;-62
2024/01/14 09:47:46;;;;;;;21.58;16.40;;;;;;;;;;6287493;28;24430;-63
2024/01/14 09:50:48;;;;;;;23.58;17.40;;;;;;;;;;6290259;28;24636;-63
2024/01/14 09:53:50;;;;;;;23.17;17.13;;;;;;;;;;6289349;28;24830;-62
2024/01/14 09:56:53;;;;;;;26.13;18.60;;;;;;;;;;6272632;28;24476;-63
2024/01/14 09:59:56;;;;;;;26.35;19.08;;;;;;;;;;6294734;28;24883;-63
2024/01/14 10:02:59;;;;;;;25.35;18.35;;;;;;;;;;6291380;28;24522;-67
2024/01/14 10:06:01;;;;;;;24.98;18.85;;;;;;;;;;6291429;28;24403;-64
2024/01/14 10:09:04;;;;;;;25.25;19.40;;;;;;;;;;6294902;28;24419;-63
2024/01/14 10:12:08;;;;;;;24.70;19.13;;;;;;;;;;6293844;28;24483;-63
2024/01/14 10:15:12;;;;;;;26.95;19.42;;;;;;;;;;6296862;28;24510;-63
2024/01/14 10:18:14;;;;;;;24.77;19.03;;;;;;;;;;6291941;28;24851;-62
2024/01/14 10:21:16;;;;;;;24.70;18.63;;;;;;;;;;6294113;28;24759;-62
2024/01/14 10:24:18;;;;;;;26.42;19.55;;;;;;;;;;6293054;28;24431;-63
2024/01/14 10:27:20;;;;;;;25.83;19.70;;;;;;;;;;6275893;28;24415;-63
2024/01/14 10:30:23;;;;;;;25.90;18.77;;;;;;;;;;6289512;28;24435;-61
2024/01/14 10:33:26;;;;;;;27.08;18.52;;;;;;;;;;6292095;28;24422;-62
2024/01/14 10:36:28;;;;;;;26.17;18.60;;;;;;;;;;6293595;28;24458;-62
2024/01/14 10:39:31;;;;;;;24.90;19.13;;;;;;;;;;6291666;28;24628;-62
2024/01/14 10:42:32;;;;;;;24.67;19.00;;;;;;;;;;6293329;28;24427;-62
2024/01/14 10:45:36;;;;;;;24.27;19.45;;;;;;;;;;6278049;28;24435;-62
2024/01/14 10:48:39;;;;;;;24.13;18.13;;;;;;;;;;6289977;28;24424;-62
2024/01/14 10:51:41;;;;;;;25.05;18.67;;;;;;;;;;6291010;28;24660;-62
2024/01/14 10:54:46;;;;;;;23.58;18.83;;;;;;;;;;6291556;28;24430;-62
2024/01/14 10:57:49;;;;;;;25.30;19.33;;;;;;;;;;6289874;28;24693;-62
2024/01/14 11:00:53;;;;;;;25.15;19.10;;;;;;;;;;6290406;28;24847;-63
2024/01/14 11:03:55;;;;;;;23.80;18.35;;;;;;;;;;6290288;28;24465;-62
2024/01/14 11:06:57;;;;;;;23.83;18.20;;;;;;;;;;6295998;28;24531;-64
2024/01/14 11:09:59;;;;;;;23.65;18.73;;;;;;;;;;6286996;28;24446;-63
2024/01/14 11:13:05;;;;;;;24.23;18.13;;;;;;;;;;6290275;28;24515;-63
2024/01/14 11:16:14;;;;;;;24.50;18.83;;;;;;;;;;6272588;28;24609;-62
2024/01/14 11:19:17;;;;;;;24.35;19.08;;;;;;;;;;6292354;28;24812;-62
2024/01/14 11:22:20;;;;;;;25.15;19.55;;;;;;;;;;6291410;28;24398;-63
2024/01/14 11:25:22;;;;;;;25.00;19.20;;;;;;;;;;6288394;28;24407;-62
2024/01/14 11:28:24;;;;;;;24.73;19.00;;;;;;;;;;6290673;28;24976;-62
2024/01/14 11:31:59;;;;;;;23.95;18.48;;;;;;;;;;6290546;28;24422;-63
2024/01/14 11:35:02;;;;;;;24.87;19.00;;;;;;;;;;6290951;28;24430;-63
2024/01/14 11:38:04;;;;;;;24.10;18.52;;;;;;;;;;6292389;28;24560;-62
2024/01/14 11:41:30;;;;;;;23.20;17.50;;;;;;;;;;6292678;28;24423;-63
2024/01/14 11:44:32;;;;;;;22.35;17.52;;;;;;;;;;6287254;28;24432;-62
2024/01/14 11:47:36;;;;;;;25.40;18.13;;;;;;;;;;6296540;28;24501;-63
2024/01/14 11:50:39;;;;;;;23.10;17.95;;;;;;;;;;6288660;28;24542;-62
2024/01/14 11:53:41;;;;;;;23.33;18.63;;;;;;;;;;6292507;28;24644;-61
2024/01/14 11:56:43;;;;;;;24.33;19.23;;;;;;;;;;6288738;28;25123;-62
2024/01/14 11:59:45;;;;;;;23.15;18.05;;;;;;;;;;6288459;28;24461;-63
2024/01/14 12:02:46;;;;;;;25.58;18.65;;;;;;;;;;6289845;28;24432;-62
2024/01/14 12:05:50;;;;;;;25.60;18.85;;;;;;;;;;6295179;28;24533;-62
2024/01/14 12:09:00;;;;;;;23.45;18.88;;;;;;;;;;6288508;28;24514;-62
2024/01/14 12:12:05;;;;;;;23.80;17.95;;;;;;;;;;6288030;28;24462;-62
2024/01/14 12:15:08;;;;;;;23.73;18.40;;;;;;;;;;6292663;28;24672;-62
2024/01/14 12:18:10;;;;;;;22.83;17.90;;;;;;;;;;6289218;28;24473;-63
2024/01/14 12:21:14;;;;;;;25.48;18.05;;;;;;;;;;6288021;28;24430;-64
2024/01/14 12:24:16;;;;;;;23.15;18.33;;;;;;;;;;6290839;28;24433;-63
2024/01/14 12:27:17;;;;;;;23.85;18.10;;;;;;;;;;6293680;28;24423;-62
2024/01/14 12:30:27;;;;;;;23.48;17.23;;;;;;;;;;6288382;28;24849;-62
2024/01/14 12:33:29;;;;;;;23.15;17.20;;;;;;;;;;6292253;28;24426;-62
2024/01/14 12:36:32;;;;;;;21.23;16.60;;;;;;;;;;6294875;28;24655;-63
2024/01/14 12:39:34;;;;;;;20.30;16.17;;;;;;;;;;6291634;28;24742;-63
2024/01/14 12:42:35;;;;;;;22.05;17.08;;;;;;;;;;6288920;28;24492;-62
2024/01/14 12:45:37;;;;;;;21.40;16.95;;;;;;;;;;6295037;28;24434;-62
2024/01/14 12:48:40;;;;;;;21.80;16.48;;;;;;;;;;6291247;28;25069;-62
2024/01/14 12:51:43;;;;;;;20.35;15.88;;;;;;;;;;6294214;28;24522;-62
2024/01/14 12:54:48;;;;;;;20.80;16.55;;;;;;;;;;6293467;28;24423;-62
2024/01/14 12:57:50;;;;;;;21.20;16.40;;;;;;;;;;6290360;28;24451;-62
2024/01/14 13:00:52;;;;;;;19.90;15.80;;;;;;;;;;6290893;28;24434;-62
2024/01/14 13:03:54;;;;;;;19.63;15.43;;;;;;;;;;6290013;28;24795;-62
2024/01/14 13:06:58;;;;;;;19.73;15.52;;;;;;;;;;6292584;28;25005;-62
2024/01/14 13:10:00;;;;;;;21.77;16.20;;;;;;;;;;6289762;28;24816;-62
2024/01/14 13:13:01;;;;;;;19.63;15.65;;;;;;;;;;6291182;28;24446;-62
2024/01/14 13:16:04;;;;;;;22.17;15.45;;;;;;;;;;6289622;28;24439;-62
2024/01/14 13:19:05;;;;;;;20.17;16.48;;;;;;;;;;6293065;28;24503;-62
2024/01/14 13:22:09;;;;;;;21.63;15.80;;;;;;;;;;6296827;28;24585;-62
2024/01/14 13:25:11;;;;;;;20.58;15.88;;;;;;;;;;6289253;28;24422;-62
2024/01/14 13:28:13;;;;;;;22.05;16.15;;;;;;;;;;6293205;28;24448;-61
2024/01/14 13:31:15;;;;;;;21.02;16.13;;;;;;;;;;6291625;28;24462;-62
2024/01/14 13:34:17;;;;;;;19.70;15.90;;;;;;;;;;6296938;28;24446;-62
2024/01/14 13:37:20;;;;;;;20.58;15.98;;;;;;;;;;6298693;28;24648;-62
2024/01/14 13:40:22;;;;;;;21.05;15.68;;;;;;;;;;6293960;28;24793;-62
2024/01/14 13:43:24;;;;;;;21.20;16.40;;;;;;;;;;6293536;28;24427;-59
2024/01/14 13:46:26;;;;;;;20.45;15.80;;;;;;;;;;6296193;28;24434;-61
2024/01/14 13:49:28;;;;;;;20.58;16.30;;;;;;;;;;6293014;28;24649;-62
2024/01/14 13:52:31;;;;;;;19.90;15.45;;;;;;;;;;6297277;28;24426;-62
2024/01/14 13:55:32;;;;;;;21.80;15.98;;;;;;;;;;6294232;28;24433;-62
2024/01/14 13:58:34;;;;;;;21.23;16.00;;;;;;;;;;6291841;28;24466;-62
2024/01/14 14:01:37;;;;;;;19.92;15.50;;;;;;;;;;6291821;28;24426;-62
2024/01/14 14:04:39;;;;;;;22.80;16.53;;;;;;;;;;6298882;28;24844;-62
2024/01/14 14:07:42;;;;;;;21.17;16.30;;;;;;;;;;6297576;28;24487;-62
2024/01/14 14:10:46;;;;;;;21.90;15.65;;;;;;;;;;6292418;28;24426;-62
2024/01/14 14:13:48;;;;;;;22.98;15.65;;;;;;;;;;6295995;28;24526;-61
2024/01/14 14:16:50;;;;;;;22.83;16.60;;;;;;;;;;6273105;28;24419;-62
2024/01/14 14:19:52;;;;;;;19.92;15.35;;;;;;;;;;6290026;28;24425;-62
2024/01/14 14:22:55;;;;;;;22.38;15.45;;;;;;;;;;6293372;28;24469;-61
2024/01/14 14:25:57;;;;;;;21.13;14.98;;;;;;;;;;6292557;28;24435;-62
2024/01/14 14:28:59;;;;;;;20.42;15.48;;;;;;;;;;6288698;28;24419;-62
2024/01/14 14:32:00;;;;;;;20.02;14.98;;;;;;;;;;6296941;28;24849;-62
2024/01/14 14:35:02;;;;;;;24.65;14.90;;;;;;;;;;6291086;28;24749;-62
2024/01/14 14:38:05;;;;;;;20.30;14.95;;;;;;;;;;6288857;28;24443;-62
2024/01/14 14:41:07;;;;;;;21.03;15.20;;;;;;;;;;6296652;28;25160;-62
2024/01/14 14:44:10;;;;;;;19.10;14.35;;;;;;;;;;6291029;28;24423;-62
2024/01/14 14:47:12;;;;;;;20.08;14.38;;;;;;;;;;6291930;28;24719;-62
2024/01/14 14:50:13;;;;;;;19.48;14.27;;;;;;;;;;6292166;28;24433;-62
2024/01/14 14:53:16;;;;;;;20.60;14.85;;;;;;;;;;6292622;28;24484;-62
2024/01/14 14:56:21;;;;;;;19.92;14.52;;;;;;;;;;6289596;28;24423;-62
2024/01/14 14:59:23;;;;;;;18.90;14.77;;;;;;;;;;6292210;28;24486;-61
2024/01/14 15:02:27;;;;;;;20.85;15.20;;;;;;;;;;6290979;28;24411;-62
2024/01/14 15:05:29;;;;;;;20.88;14.90;;;;;;;;;;6293177;28;24493;-62
2024/01/14 15:08:32;;;;;;;20.50;15.05;;;;;;;;;;6277660;28;24527;-62
2024/01/14 15:11:34;;;;;;;22.67;14.45;;;;;;;;;;6293043;28;24507;-62
2024/01/14 15:14:35;;;;;;;20.83;14.67;;;;;;;;;;6275248;28;24503;-60
2024/01/14 15:17:37;;;;;;;19.87;14.43;;;;;;;;;;6299682;28;24824;-62
2024/01/14 15:20:39;;;;;;;20.80;14.73;;;;;;;;;;6292627;28;24424;-62
2024/01/14 15:23:42;;;;;;;18.70;14.40;;;;;;;;;;6291264;28;24449;-63
2024/01/14 15:26:44;;;;;;;21.60;14.77;;;;;;;;;;6273299;28;24462;-62
2024/01/14 15:29:46;;;;;;;20.70;14.90;;;;;;;;;;6277200;28;24416;-62
2024/01/14 15:32:47;;;;;;;19.27;14.57;;;;;;;;;;6290559;28;24815;-63
2024/01/14 15:35:49;;;;;;;19.30;14.20;;;;;;;;;;6293601;28;24426;-62
2024/01/14 15:38:52;;;;;;;20.07;14.77;;;;;;;;;;6289963;28;24427;-62
2024/01/14 15:41:54;;;;;;;20.85;15.00;;;;;;;;;;6291616;28;24421;-61
2024/01/14 15:44:56;;;;;;;18.67;13.95;;;;;;;;;;6291443;28;24874;-62
2024/01/14 15:47:59;;;;;;;18.02;13.95;;;;;;;;;;6292152;28;24430;-62
2024/01/14 15:51:01;;;;;;;20.30;13.85;;;;;;;;;;6289837;28;24582;-62
2024/01/14 15:54:04;;;;;;;19.58;13.70;;;;;;;;;;6291990;28;24474;-62
2024/01/14 15:57:07;;;;;;;22.20;15.15;;;;;;;;;;6287852;28;24545;-62
2024/01/14 16:00:10;;;;;;;21.63;16.60;;;;;;;;;;6277871;28;24852;-63
2024/01/14 16:03:11;;;;;;;23.60;17.15;;;;;;;;;;6289244;28;24661;-62
2024/01/14 16:06:13;;;;;;;24.40;17.90;;;;;;;;;;6291366;28;24423;-62
2024/01/14 16:09:16;;;;;;;24.17;17.75;;;;;;;;;;6292533;28;24461;-63
2024/01/14 16:12:18;;;;;;;22.67;17.58;;;;;;;;;;6288269;28;24435;-62
2024/01/14 16:15:20;;;;;;;28.53;19.50;;;;;;;;;;6294438;28;24429;-63
2024/01/14 16:18:21;;;;;;;26.55;19.88;;;;;;;;;;6291426;28;24498;-63
2024/01/14 16:21:24;;;;;;;25.98;18.85;;;;;;;;;;6287523;28;24428;-63
2024/01/14 16:24:28;;;;;;;26.85;19.77;;;;;;;;;;6273620;28;24414;-63
2024/01/14 16:27:30;;;;;;;25.15;18.65;;;;;;;;;;6291434;28;24430;-63
2024/01/14 16:30:31;;;;;;;25.63;18.83;;;;;;;;;;6293433;28;24443;-63
2024/01/14 16:33:33;;;;;;;25.93;19.07;;;;;;;;;;6291230;28;24443;-63
2024/01/14 16:36:35;;;;;;;26.60;19.27;;;;;;;;;;6293328;28;24442;-63
2024/01/14 16:39:38;;;;;;;28.70;19.58;;;;;;;;;;6287943;28;24435;-62
2024/01/14 16:42:40;;;;;;;28.33;21.57;;;;;;;;;;6289149;28;24431;-63
2024/01/14 16:45:41;;;;;;;27.80;21.13;;;;;;;;;;6288444;28;24855;-63
2024/01/14 16:48:43;;;;;;;29.52;21.23;;;;;;;;;;6289556;28;24411;-63
2024/01/14 16:51:45;;;;;;;29.58;22.52;;;;;;;;;;6287270;28;24828;-63
2024/01/14 16:54:48;;;;;;;29.90;22.52;;;;;;;;;;6289307;28;24419;-63
2024/01/14 16:57:50;;;;;;;32.95;23.20;;;;;;;;;;6287882;28;24433;-63
2024/01/14 17:00:53;;;;;;;31.50;23.75;;;;;;;;;;6288751;28;24439;-63
2024/01/14 17:03:55;;;;;;;32.58;22.70;;;;;;;;;;6290247;28;24623;-69
2024/01/14 17:06:57;;;;;;;31.73;22.67;;;;;;;;;;6288243;28;24435;-69
2024/01/14 17:10:00;;;;;;;31.13;23.77;;;;;;;;;;6286147;28;24501;-68
2024/01/14 17:13:01;;;;;;;32.65;23.27;;;;;;;;;;6287153;28;24451;-68
2024/01/14 17:16:04;;;;;;;32.95;24.02;;;;;;;;;;6291434;28;24494;-69
2024/01/14 17:19:05;;;;;;;33.05;24.58;;;;;;;;;;6289708;28;24479;-69
2024/01/14 17:22:07;;;;;;;32.90;23.80;;;;;;;;;;6293829;28;24846;-68
2024/01/14 17:25:10;;;;;;;33.72;23.98;;;;;;;;;;6287253;28;24485;-70
2024/01/14 17:28:14;;;;;;;35.58;25.65;;;;;;;;;;6290171;28;24851;-68
2024/01/14 17:31:16;;;;;;;36.20;25.40;;;;;;;;;;6288454;28;24453;-69
2024/01/14 17:34:18;;;;;;;36.00;25.88;;;;;;;;;;6287185;28;24483;-69
2024/01/14 17:37:20;;;;;;;36.03;26.40;;;;;;;;;;6290809;28;24452;-70
2024/01/14 17:40:23;;;;;;;41.88;28.20;;;;;;;;;;6287748;28;24431;-70